ADDS METAR Data INFO
IDs: Format: Raw Decoded Include TAF

Data at: 1236 UTC 22 Feb 2018

PAHL 221156Z AUTO 22005KT 10SM OVC008 00/M01 A2981 RMK AO2 UPE06 CIG 007V013 SLP104 P0001 60004 70004 T00001006 10000 21011 58011 FZRANO
PAHL 221056Z AUTO 19007KT 4SM UP BR OVC006 00/M01 A2983 RMK AO2 UPB03E05B39SNE03B05E39 CIG 003V009 SLP111 P0001 T00001006 FZRANO
PAHL 221054Z AUTO 20009KT 3SM UP BR OVC006 00/M01 A2983 RMK AO2 UPB03E05B39SNE03B05E39 CIG 003V009 P0001 FZRANO
PAHL 221047Z AUTO 19005KT 2 1/2SM UP BR BKN003 OVC008 00/M01 A2983 RMK AO2 UPB03E05B39SNE03B05E39 CIG 003V006 P0001 FZRANO
PAHL 221022Z AUTO 18006KT 1 3/4SM -SN BR OVC003 00/M01 A2984 RMK AO2 UPB03E05SNE03B05 P0000 FZRANO
PAHL 220956Z AUTO 17008KT 2 1/2SM -SN BR BKN005 OVC010 00/M01 A2984 RMK AO2 CIG 003V007 SLP116 P0000 T00001006 FZRANO
PAHL 220952Z AUTO 17009KT 4SM -SN BR OVC005 00/M01 A2985 RMK AO2 CIG 004V007 P0000 FZRANO
PAHL 220856Z AUTO 15004KT 9SM -SN BKN003 OVC008 M01/M01 A2987 RMK AO2 SLP127 P0001 60002 T10111011 410111122 58018 FZRANO
PAHL 220824Z AUTO 15004KT 4SM -SN BR BKN003 OVC016 M01/M02 A2988 RMK AO2 P0000 FZRANO
PAHL 220812Z AUTO 12003KT 9SM -SN SCT003 OVC016 M01/M02 A2989 RMK AO2 P0000 FZRANO
PAHL 220756Z AUTO 14004KT 6SM -SN BR OVC016 M01/M02 A2989 RMK AO2 SLP132 P0001 T10111017 FZRANO
PAHL 220735Z AUTO 13005KT 3SM -SN BR FEW003 BKN016 OVC021 M01/M02 A2990 RMK AO2 P0000 FZRANO
PAHL 220714Z AUTO 14005KT 2SM -SN BR SCT007 OVC014 M01/M02 A2992 RMK AO2 VIS 1 1/4V5 P0000 FZRANO
PAHL 220653Z AUTO 13004KT 1 1/2SM -SN BR BKN007 OVC011 M01/M02 A2993 RMK AO2 VIS 1V2 1/2 CIG 003V010 P0000 FZRANO
PAHL 220635Z AUTO 13003KT 1 1/4SM -SN BR SCT004 BKN011 OVC023 M01/M02 A2994 RMK AO2 P0000 FZRANO
PAHL 220627Z AUTO 13003KT 1SM -SN BR SCT004 BKN009 OVC025 M01/M02 A2994 RMK AO2 CIG 007V015 P0000 FZRANO
PAHL 220620Z AUTO 13003KT 1 1/4SM -SN BR SCT004 BKN009 OVC038 M01/M02 A2994 RMK AO2 CIG 007V012 P0000 FZRANO
PAHL 220608Z AUTO 14003KT 3SM -SN BR BKN008 BKN028 OVC038 M01/M02 A2995 RMK AO2 CIG 004V009 P0000 FZRANO
PAHL 220556Z AUTO 14003KT 3SM -SN BR BKN010 BKN017 OVC038 M01/M02 A2995 RMK AO2 SNB21 CIG 007V012 SLP152 P0000 60000 T10111022 11011 21022 58023 FZRANO
PAHL 220505Z AUTO 15005KT 5SM BR OVC010 M01/M02 A2998 RMK AO2 CIG 007V013 FZRANO
PAHL 220456Z AUTO 16006KT 9SM OVC008 M01/M02 A2999 RMK AO2 CIG 007V012 SLP165 T10111022 FZRANO
PAHL 220447Z AUTO 17005KT 10SM OVC008 M01/M02 A2999 RMK AO2 FZRANO
PAHL 220356Z AUTO 16004KT 10SM OVC010 M02/M03 A3000 RMK AO2 SLP169 T10171028 FZRANO
PAHL 212356Z AUTO 10007KT 10SM SCT020 OVC029 M02/M03 A3011 RMK AO2 SLP207 60000 T10221033 11022 21094 56030 FZRANO
PAHL 212256Z AUTO 12008KT 9SM BKN020 OVC039 M03/M04 A3013 RMK AO2 SNE53 SLP215 P0000 T10281039 FZRANO
PAHL 212228Z AUTO 11006KT 4SM -SN BR SCT020 BKN030 OVC039 M03/M03 A3016 RMK AO2 P0000 FZRANO
PAHL 212215Z AUTO 10005KT 2SM -SN BR BKN022 OVC030 M03/M04 A3016 RMK AO2 P0000 FZRANO
PAHL 212156Z AUTO 11005KT 4SM -SN BR BKN024 OVC029 M03/M04 A3017 RMK AO2 SLP226 P0000 T10331039 FZRANO
PAHL 212146Z AUTO 11006KT 2SM -SN BR BKN027 OVC033 M03/M04 A3017 RMK AO2 VIS 1 1/4V3 P0000 FZRANO
PAHL 212121Z AUTO 11006KT 1 1/2SM -SN BR FEW020 OVC032 M04/M04 A3018 RMK AO2 P0000 FZRANO
PAHL 212114Z AUTO 10005KT 1SM -SN BR SCT020 OVC032 M04/M04 A3018 RMK AO2 P0000 FZRANO
PAHL 212056Z AUTO 12004KT 1SM -SN BR BKN022 OVC034 M05/M06 A3020 RMK AO2 SNB12 SLP237 P0000 60000 T10501056 56014 FZRANO
PAHL 212049Z AUTO 12004KT 1SM -SN BR SCT022 OVC034 M05/M06 A3020 RMK AO2 SNB12 P0000 FZRANO
PAHL 212024Z AUTO 11003KT 1 3/4SM -SN BR OVC042 M07/M07 A3020 RMK AO2 SNB12 P0000 FZRANO
PAHL 211956Z AUTO 06004KT 10SM SCT040 OVC075 M07/M08 A3021 RMK AO2 SLP242 T10721083 FZRANO
PAHL 211856Z AUTO 06004KT 10SM BKN042 M09/M10 A3022 RMK AO2 SLP244 T10891100 FZRANO
PAHL 211756Z AUTO 06004KT 6SM BR CLR M09/M10 A3024 RMK AO2 SLP252 T10891100 11056 21122 58020 FZRANO
PAHL 211656Z AUTO 08005KT 7SM CLR M11/M12 A3026 RMK AO2 SLP259 T11061117 FZRANO
PAHL 211556Z AUTO 06004KT 8SM CLR M12/M13 A3028 RMK AO2 SLP266 T11171128 FZRANO
PAHL 211456Z AUTO 09003KT 9SM BKN055 M11/M13 A3030 RMK AO2 SLP271 T11111128 58016 FZRANO
PAHL 211414Z AUTO 00000KT 8SM FEW008 BKN055 M11/M12 A3032 RMK AO2 FZRANO
PAHL 211356Z AUTO 00000KT 3SM BR FEW055 M10/M12 A3032 RMK AO2 SLP279 T11001117 FZRANO
PAHL 211339Z AUTO 00000KT 1 3/4SM BR CLR M09/M11 A3033 RMK AO2 VIS 1V4 FZRANO
PAHL 211256Z AUTO 00000KT 9SM CLR M08/M09 A3034 RMK AO2 SLP283 T10781089 FZRANO
PAHL 210756Z AUTO 21008KT 10SM SCT042 SCT055 M04/M06 A3035 RMK AO2 SLP290 T10391056 FZRANO
PAHL 210656Z AUTO 20011KT 10SM SCT055 M03/M05 A3035 RMK AO2 SLP289 T10331050 FZRANO
PAHL 210556Z AUTO 20012KT 10SM FEW042 BKN060 M03/M04 A3034 RMK AO2 SLP285 T10281044 11006 21028 58002 FZRANO